PWSweather.com
Personal Weather Stations
Station Observations
EDDERTON
Rossshire, EddertonGB IV191LA

RossshireEddertonGB IV191LA

Lat: 57.838, Lon: -4.176

Elevation: 60

Station Type: Davis Vantage PRO2 Wireless With Solar Sensor

http://www.ardmore-lodge.com

Latest ConditionsUpdated 1:15:00 PM GMT Saturday, Mar 25, 2017
Currently Today's Max Today's Min Today's Average
Temperature 61.8°F16.6°C 61.8°F16.6°C 35.4°F1.9°C 43.6°F6.4°C
Dew Point 33.8°F1.0°C 39.3°F4.1°C 29.9°F-1.2°C 33.5°F0.8°C
Winds 4.6 mph ENE7.4 kmh ENE 8.1 mph SW13.0 kmh SW - 2.0 mph 3.2 kmh
Wind Gusts 5.8 mph9.3 kmh 13.8 mph22.2 kmh - -
Humidity 35% 87% 32% 71%
Pressure 30.40 in1029.5 mb 30.49 in1032.5 mb 30.40 in1029.5 mb -
Hour Temp Dew Point Humidity Winds Wind Gusts Pressure Precip Precip Rate Daily Precip Total
01:15 PM 61.8°F16.6°C 33.8°F1.0°C 35% 4.6 mph ENE7.4 kmh ENE 5.8 mph9.3 kmh 30.40 in1029.5 mb - 0.00 in0.0 mm 0.00 in0.0 mm
01:00 PM 61.6°F16.4°C 31.4°F-0.3°C 32% 3.5 mph NE5.6 kmh NE 4.6 mph7.4 kmh 30.40 in1029.5 mb - 0.00 in0.0 mm 0.00 in0.0 mm
12:45 PM 61.2°F16.2°C 34.0°F1.1°C 36% 2.3 mph NE3.7 kmh NE 3.5 mph5.6 kmh 30.41 in1029.8 mb - 0.00 in0.0 mm 0.00 in0.0 mm
12:30 PM 61.2°F16.2°C 33.3°F0.7°C 35% 2.3 mph NE3.7 kmh NE 4.6 mph7.4 kmh 30.41 in1029.8 mb - 0.00 in0.0 mm 0.00 in0.0 mm
12:15 PM 59.7°F15.4°C 32.0°F0.0°C 35% 1.2 mph NE1.9 kmh NE 3.5 mph5.6 kmh 30.41 in1029.8 mb - 0.00 in0.0 mm 0.00 in0.0 mm
12:00 PM 58.5°F14.7°C 31.6°F-0.2°C 36% 2.3 mph NE3.7 kmh NE 2.3 mph3.7 kmh 30.41 in1029.8 mb - 0.00 in0.0 mm 0.00 in0.0 mm
11:45 AM 56.5°F13.6°C 33.7°F0.9°C 42% 2.3 mph NE3.7 kmh NE 2.3 mph3.7 kmh 30.42 in1030.1 mb - 0.00 in0.0 mm 0.00 in0.0 mm
11:30 AM 56.4°F13.6°C 33.0°F0.6°C 41% 2.3 mph NE3.7 kmh NE 4.6 mph7.4 kmh 30.43 in1030.5 mb - 0.00 in0.0 mm 0.00 in0.0 mm
11:15 AM 55.8°F13.2°C 33.0°F0.6°C 42% 1.2 mph NE1.9 kmh NE 2.3 mph3.7 kmh 30.43 in1030.5 mb - 0.00 in0.0 mm 0.00 in0.0 mm
11:00 AM 54.3°F12.4°C 32.8°F0.4°C 44% 2.3 mph NE3.7 kmh NE 2.3 mph3.7 kmh 30.43 in1030.5 mb - 0.00 in0.0 mm 0.00 in0.0 mm
10:45 AM 53.0°F11.7°C 36.3°F2.4°C 53% 1.2 mph NE1.9 kmh NE 3.5 mph5.6 kmh 30.43 in1030.5 mb - 0.00 in0.0 mm 0.00 in0.0 mm
10:30 AM 54.3°F12.4°C 36.1°F2.3°C 50% 1.2 mph NE1.9 kmh NE 3.5 mph5.6 kmh 30.43 in1030.5 mb - 0.00 in0.0 mm 0.00 in0.0 mm
10:15 AM 53.9°F12.2°C 33.6°F0.9°C 46% Calm Calm 3.5 mph5.6 kmh 30.43 in1030.5 mb - 0.00 in0.0 mm 0.00 in0.0 mm
10:00 AM 52.4°F11.3°C 37.1°F2.8°C 56% 1.2 mph NE1.9 kmh NE 2.3 mph3.7 kmh 30.43 in1030.5 mb - 0.00 in0.0 mm 0.00 in0.0 mm
09:45 AM 50.0°F10.0°C 39.1°F3.9°C 66% 1.2 mph NE1.9 kmh NE 2.3 mph3.7 kmh 30.43 in1030.5 mb - 0.00 in0.0 mm 0.00 in0.0 mm
09:30 AM 47.2°F8.4°C 39.3°F4.1°C 74% 2.3 mph NE3.7 kmh NE 3.5 mph5.6 kmh 30.44 in1030.8 mb - 0.00 in0.0 mm 0.00 in0.0 mm
09:15 AM 45.5°F7.5°C 38.0°F3.3°C 75% 2.3 mph NE3.7 kmh NE 2.3 mph3.7 kmh 30.44 in1030.8 mb - 0.00 in0.0 mm 0.00 in0.0 mm
09:00 AM 44.0°F6.7°C 37.5°F3.1°C 78% 1.2 mph NNE1.9 kmh NNE 3.5 mph5.6 kmh 30.43 in1030.5 mb - 0.00 in0.0 mm 0.00 in0.0 mm
08:45 AM 43.2°F6.2°C 38.0°F3.3°C 82% 3.5 mph NW5.6 kmh NW 5.8 mph9.3 kmh 30.44 in1030.8 mb - 0.00 in0.0 mm 0.00 in0.0 mm
08:30 AM 40.5°F4.7°C 35.8°F2.1°C 83% 2.3 mph NW3.7 kmh NW 3.5 mph5.6 kmh 30.44 in1030.8 mb - 0.00 in0.0 mm 0.00 in0.0 mm
08:15 AM 40.3°F4.6°C 35.5°F1.9°C 83% 2.3 mph NW3.7 kmh NW 4.6 mph7.4 kmh 30.44 in1030.8 mb - 0.00 in0.0 mm 0.00 in0.0 mm
08:00 AM 39.4°F4.1°C 35.0°F1.7°C 84% Calm Calm 1.2 mph1.9 kmh 30.45 in1031.2 mb - 0.00 in0.0 mm 0.00 in0.0 mm
07:45 AM 38.3°F3.5°C 33.3°F0.7°C 82% 6.9 mph NNE11.1 kmh NNE 10.4 mph16.7 kmh 30.45 in1031.2 mb - 0.00 in0.0 mm 0.00 in0.0 mm
07:30 AM 37.8°F3.2°C 33.1°F0.6°C 83% Calm Calm 2.3 mph3.7 kmh 30.45 in1031.2 mb - 0.00 in0.0 mm 0.00 in0.0 mm
07:15 AM 37.6°F3.1°C 32.6°F0.3°C 82% 3.5 mph NNW5.6 kmh NNW 4.6 mph7.4 kmh 30.45 in1031.2 mb - 0.00 in0.0 mm 0.00 in0.0 mm
07:00 AM 36.9°F2.7°C 31.6°F-0.2°C 81% 2.3 mph NNW3.7 kmh NNW 3.5 mph5.6 kmh 30.45 in1031.2 mb - 0.00 in0.0 mm 0.00 in0.0 mm
06:45 AM 35.8°F2.1°C 29.9°F-1.2°C 79% Calm Calm -- 30.45 in1031.2 mb - 0.00 in0.0 mm 0.00 in0.0 mm
06:30 AM 36.5°F2.5°C 30.0°F-1.1°C 77% Calm Calm 2.3 mph3.7 kmh 30.44 in1030.8 mb - 0.00 in0.0 mm 0.00 in0.0 mm
06:15 AM 37.2°F2.9°C 30.7°F-0.7°C 77% 1.2 mph NW1.9 kmh NW 2.3 mph3.7 kmh 30.44 in1030.8 mb - 0.00 in0.0 mm 0.00 in0.0 mm
06:00 AM 38.3°F3.5°C 31.1°F-0.5°C 75% 2.3 mph NW3.7 kmh NW 3.5 mph5.6 kmh 30.44 in1030.8 mb - 0.00 in0.0 mm 0.00 in0.0 mm
05:45 AM 41.7°F5.4°C 32.6°F0.3°C 70% 3.5 mph SW5.6 kmh SW 3.5 mph5.6 kmh 30.44 in1030.8 mb - 0.00 in0.0 mm 0.00 in0.0 mm
05:30 AM 43.1°F6.2°C 34.0°F1.1°C 70% 3.5 mph SW5.6 kmh SW 3.5 mph5.6 kmh 30.44 in1030.8 mb - 0.00 in0.0 mm 0.00 in0.0 mm
05:15 AM 41.0°F5.0°C 34.0°F1.1°C 76% 8.1 mph SW13.0 kmh SW 13.8 mph22.2 kmh 30.44 in1030.8 mb - 0.00 in0.0 mm 0.00 in0.0 mm
05:00 AM 38.6°F3.7°C 32.0°F0.0°C 77% 2.3 mph SW3.7 kmh SW 4.6 mph7.4 kmh 30.44 in1030.8 mb - 0.00 in0.0 mm 0.00 in0.0 mm
04:45 AM 37.8°F3.2°C 31.9°F-0.1°C 79% 2.3 mph SW3.7 kmh SW 3.5 mph5.6 kmh 30.45 in1031.2 mb - 0.00 in0.0 mm 0.00 in0.0 mm
04:30 AM 37.4°F3.0°C 31.8°F-0.1°C 80% 3.5 mph SW5.6 kmh SW 3.5 mph5.6 kmh 30.45 in1031.2 mb - 0.00 in0.0 mm 0.00 in0.0 mm
04:15 AM 36.5°F2.5°C 31.5°F-0.3°C 82% 3.5 mph SW5.6 kmh SW 5.8 mph9.3 kmh 30.45 in1031.2 mb - 0.00 in0.0 mm 0.00 in0.0 mm
04:00 AM 35.9°F2.2°C 31.8°F-0.1°C 85% 2.3 mph SW3.7 kmh SW 3.5 mph5.6 kmh 30.45 in1031.2 mb - 0.00 in0.0 mm 0.00 in0.0 mm
03:45 AM 35.4°F1.9°C 31.9°F-0.1°C 87% 1.2 mph SW1.9 kmh SW 1.2 mph1.9 kmh 30.45 in1031.2 mb - 0.00 in0.0 mm 0.00 in0.0 mm
03:30 AM 35.7°F2.1°C 31.6°F-0.2°C 85% 1.2 mph SW1.9 kmh SW 3.5 mph5.6 kmh 30.46 in1031.5 mb - 0.00 in0.0 mm 0.00 in0.0 mm
03:15 AM 36.7°F2.6°C 32.6°F0.3°C 85% 1.2 mph SW1.9 kmh SW -- 30.46 in1031.5 mb - 0.00 in0.0 mm 0.00 in0.0 mm
03:00 AM 37.2°F2.9°C 32.8°F0.4°C 84% Calm Calm -- 30.46 in1031.5 mb - 0.00 in0.0 mm 0.00 in0.0 mm
02:45 AM 37.9°F3.3°C 33.2°F0.7°C 83% 2.3 mph SW3.7 kmh SW 3.5 mph5.6 kmh 30.46 in1031.5 mb - 0.00 in0.0 mm 0.00 in0.0 mm
02:30 AM 37.7°F3.2°C 33.0°F0.6°C 83% 1.2 mph SW1.9 kmh SW -- 30.47 in1031.8 mb - 0.00 in0.0 mm 0.00 in0.0 mm
02:15 AM 38.0°F3.3°C 33.3°F0.7°C 83% Calm Calm 2.3 mph3.7 kmh 30.47 in1031.8 mb - 0.00 in0.0 mm 0.00 in0.0 mm
02:00 AM 38.2°F3.4°C 33.2°F0.7°C 82% 1.2 mph SW1.9 kmh SW 3.5 mph5.6 kmh 30.48 in1032.2 mb - 0.00 in0.0 mm 0.00 in0.0 mm
01:45 AM 37.3°F2.9°C 33.2°F0.7°C 85% 1.2 mph SW1.9 kmh SW 5.8 mph9.3 kmh 30.47 in1031.8 mb - 0.00 in0.0 mm 0.00 in0.0 mm
01:30 AM 36.4°F2.4°C 32.0°F0.0°C 84% Calm Calm -- 30.47 in1031.8 mb - 0.00 in0.0 mm 0.00 in0.0 mm
01:15 AM 37.1°F2.8°C 32.7°F0.4°C 84% 1.2 mph SW1.9 kmh SW 2.3 mph3.7 kmh 30.48 in1032.2 mb - 0.00 in0.0 mm 0.00 in0.0 mm
01:00 AM 36.8°F2.7°C 32.7°F0.4°C 85% 3.5 mph SW5.6 kmh SW 5.8 mph9.3 kmh 30.48 in1032.2 mb - 0.00 in0.0 mm 0.00 in0.0 mm
12:45 AM 37.2°F2.9°C 32.8°F0.4°C 84% Calm Calm 1.2 mph1.9 kmh 30.49 in1032.5 mb - 0.00 in0.0 mm 0.00 in0.0 mm
12:30 AM 37.4°F3.0°C 33.3°F0.7°C 85% 3.5 mph SW5.6 kmh SW 3.5 mph5.6 kmh 30.48 in1032.2 mb - 0.00 in0.0 mm 0.00 in0.0 mm
12:15 AM 37.2°F2.9°C 33.1°F0.6°C 85% 2.3 mph SW3.7 kmh SW 3.5 mph5.6 kmh 30.48 in1032.2 mb - 0.00 in0.0 mm 0.00 in0.0 mm
12:00 AM 37.5°F3.1°C 33.4°F0.8°C 85% 1.2 mph SW1.9 kmh SW 2.3 mph3.7 kmh 30.48 in1032.2 mb - 0.00 in0.0 mm 0.00 in0.0 mm